sensor_id;sensor_type;location;lat;lon;timestamp;P1;durP1;ratioP1;P2;durP2;ratioP2
7191;SDS011;3637;51.494;11.958;2023-04-24T00:00:16;2.03;;;1.87;;
7191;SDS011;3637;51.494;11.958;2023-04-24T00:03:18;2.10;;;1.90;;
7191;SDS011;3637;51.494;11.958;2023-04-24T00:06:21;2.20;;;2.00;;
7191;SDS011;3637;51.494;11.958;2023-04-24T00:09:25;4.10;;;2.07;;
7191;SDS011;3637;51.494;11.958;2023-04-24T00:12:27;2.83;;;2.10;;
7191;SDS011;3637;51.494;11.958;2023-04-24T00:15:28;2.30;;;2.10;;
7191;SDS011;3637;51.494;11.958;2023-04-24T00:18:31;2.43;;;1.80;;
7191;SDS011;3637;51.494;11.958;2023-04-24T00:21:32;1.70;;;1.60;;
7191;SDS011;3637;51.494;11.958;2023-04-24T00:24:36;2.77;;;1.80;;
7191;SDS011;3637;51.494;11.958;2023-04-24T00:27:37;2.00;;;1.60;;
7191;SDS011;3637;51.494;11.958;2023-04-24T00:30:42;1.70;;;1.60;;
7191;SDS011;3637;51.494;11.958;2023-04-24T00:33:43;1.50;;;1.40;;
7191;SDS011;3637;51.494;11.958;2023-04-24T00:36:45;1.60;;;1.50;;
7191;SDS011;3637;51.494;11.958;2023-04-24T00:39:50;1.70;;;1.33;;
7191;SDS011;3637;51.494;11.958;2023-04-24T00:42:53;1.60;;;1.50;;
7191;SDS011;3637;51.494;11.958;2023-04-24T00:45:55;1.43;;;1.33;;
7191;SDS011;3637;51.494;11.958;2023-04-24T00:49:01;1.70;;;1.33;;
7191;SDS011;3637;51.494;11.958;2023-04-24T00:52:03;1.53;;;1.43;;
7191;SDS011;3637;51.494;11.958;2023-04-24T00:55:10;2.10;;;1.50;;
7191;SDS011;3637;51.494;11.958;2023-04-24T00:58:12;1.30;;;1.20;;
7191;SDS011;3637;51.494;11.958;2023-04-24T01:01:13;1.47;;;1.37;;
7191;SDS011;3637;51.494;11.958;2023-04-24T01:04:15;1.40;;;1.30;;
7191;SDS011;3637;51.494;11.958;2023-04-24T01:07:19;1.67;;;1.50;;
7191;SDS011;3637;51.494;11.958;2023-04-24T01:10:23;1.50;;;1.40;;
7191;SDS011;3637;51.494;11.958;2023-04-24T01:13:27;1.40;;;1.30;;
7191;SDS011;3637;51.494;11.958;2023-04-24T01:16:29;1.20;;;1.10;;
7191;SDS011;3637;51.494;11.958;2023-04-24T01:19:31;2.33;;;1.40;;
7191;SDS011;3637;51.494;11.958;2023-04-24T01:22:34;1.40;;;1.30;;
7191;SDS011;3637;51.494;11.958;2023-04-24T01:25:36;1.30;;;1.20;;
7191;SDS011;3637;51.494;11.958;2023-04-24T01:28:39;1.43;;;1.33;;
7191;SDS011;3637;51.494;11.958;2023-04-24T01:31:41;1.20;;;1.20;;
7191;SDS011;3637;51.494;11.958;2023-04-24T01:34:43;1.37;;;1.27;;
7191;SDS011;3637;51.494;11.958;2023-04-24T01:37:47;1.57;;;1.40;;
7191;SDS011;3637;51.494;11.958;2023-04-24T01:40:49;1.43;;;1.33;;
7191;SDS011;3637;51.494;11.958;2023-04-24T01:43:51;1.40;;;1.30;;
7191;SDS011;3637;51.494;11.958;2023-04-24T01:46:54;1.40;;;1.30;;
7191;SDS011;3637;51.494;11.958;2023-04-24T01:49:56;2.03;;;1.13;;
7191;SDS011;3637;51.494;11.958;2023-04-24T01:53:02;2.10;;;1.60;;
7191;SDS011;3637;51.494;11.958;2023-04-24T01:56:04;1.73;;;1.40;;
7191;SDS011;3637;51.494;11.958;2023-04-24T01:59:06;2.67;;;1.30;;
7191;SDS011;3637;51.494;11.958;2023-04-24T02:02:10;1.73;;;1.50;;
7191;SDS011;3637;51.494;11.958;2023-04-24T02:05:12;1.60;;;1.43;;
7191;SDS011;3637;51.494;11.958;2023-04-24T02:08:15;1.50;;;1.37;;
7191;SDS011;3637;51.494;11.958;2023-04-24T02:11:17;1.97;;;1.37;;
7191;SDS011;3637;51.494;11.958;2023-04-24T02:14:19;2.53;;;1.67;;
7191;SDS011;3637;51.494;11.958;2023-04-24T02:17:21;1.60;;;1.50;;
7191;SDS011;3637;51.494;11.958;2023-04-24T02:20:23;1.60;;;1.50;;
7191;SDS011;3637;51.494;11.958;2023-04-24T02:23:26;2.00;;;1.50;;
7191;SDS011;3637;51.494;11.958;2023-04-24T02:26:28;1.67;;;1.53;;
7191;SDS011;3637;51.494;11.958;2023-04-24T02:29:32;1.60;;;1.50;;
7191;SDS011;3637;51.494;11.958;2023-04-24T02:32:34;1.87;;;1.63;;
7191;SDS011;3637;51.494;11.958;2023-04-24T02:35:36;1.93;;;1.43;;
7191;SDS011;3637;51.494;11.958;2023-04-24T02:38:39;1.80;;;1.57;;
7191;SDS011;3637;51.494;11.958;2023-04-24T02:41:41;1.60;;;1.50;;
7191;SDS011;3637;51.494;11.958;2023-04-24T02:44:43;1.60;;;1.50;;
7191;SDS011;3637;51.494;11.958;2023-04-24T02:47:44;2.10;;;1.60;;
7191;SDS011;3637;51.494;11.958;2023-04-24T02:50:46;2.60;;;1.60;;
7191;SDS011;3637;51.494;11.958;2023-04-24T02:53:50;1.40;;;1.30;;
7191;SDS011;3637;51.494;11.958;2023-04-24T02:56:54;1.73;;;1.60;;
7191;SDS011;3637;51.494;11.958;2023-04-24T02:59:56;1.70;;;1.60;;
7191;SDS011;3637;51.494;11.958;2023-04-24T03:03:01;1.93;;;1.60;;
7191;SDS011;3637;51.494;11.958;2023-04-24T03:06:03;2.17;;;1.50;;
7191;SDS011;3637;51.494;11.958;2023-04-24T03:09:09;2.17;;;1.70;;
7191;SDS011;3637;51.494;11.958;2023-04-24T03:12:11;1.87;;;1.50;;
7191;SDS011;3637;51.494;11.958;2023-04-24T03:15:13;2.37;;;1.63;;
7191;SDS011;3637;51.494;11.958;2023-04-24T03:18:15;1.93;;;1.57;;
7191;SDS011;3637;51.494;11.958;2023-04-24T03:21:17;2.60;;;1.40;;
7191;SDS011;3637;51.494;11.958;2023-04-24T03:24:20;1.53;;;1.43;;
7191;SDS011;3637;51.494;11.958;2023-04-24T03:27:22;1.73;;;1.50;;
7191;SDS011;3637;51.494;11.958;2023-04-24T03:30:24;1.90;;;1.70;;
7191;SDS011;3637;51.494;11.958;2023-04-24T03:33:26;2.87;;;1.50;;
7191;SDS011;3637;51.494;11.958;2023-04-24T03:36:28;1.50;;;1.40;;
7191;SDS011;3637;51.494;11.958;2023-04-24T03:39:32;2.70;;;1.60;;
7191;SDS011;3637;51.494;11.958;2023-04-24T03:42:34;1.50;;;1.40;;
7191;SDS011;3637;51.494;11.958;2023-04-24T03:45:36;1.57;;;1.47;;
7191;SDS011;3637;51.494;11.958;2023-04-24T03:48:37;1.70;;;1.60;;
7191;SDS011;3637;51.494;11.958;2023-04-24T03:51:41;1.70;;;1.60;;
7191;SDS011;3637;51.494;11.958;2023-04-24T03:54:46;2.53;;;1.97;;
7191;SDS011;3637;51.494;11.958;2023-04-24T03:57:48;3.13;;;1.73;;
7191;SDS011;3637;51.494;11.958;2023-04-24T04:00:50;1.70;;;1.60;;
7191;SDS011;3637;51.494;11.958;2023-04-24T04:03:51;1.60;;;1.37;;
7191;SDS011;3637;51.494;11.958;2023-04-24T04:06:53;3.43;;;1.60;;
7191;SDS011;3637;51.494;11.958;2023-04-24T04:09:57;2.07;;;1.60;;
7191;SDS011;3637;51.494;11.958;2023-04-24T04:12:58;2.00;;;1.77;;
7191;SDS011;3637;51.494;11.958;2023-04-24T04:16:00;3.17;;;1.80;;
7191;SDS011;3637;51.494;11.958;2023-04-24T04:19:02;4.63;;;1.80;;
7191;SDS011;3637;51.494;11.958;2023-04-24T04:22:04;3.80;;;1.87;;
7191;SDS011;3637;51.494;11.958;2023-04-24T04:25:09;1.87;;;1.60;;
7191;SDS011;3637;51.494;11.958;2023-04-24T04:28:14;1.63;;;1.53;;
7191;SDS011;3637;51.494;11.958;2023-04-24T04:31:19;1.70;;;1.60;;
7191;SDS011;3637;51.494;11.958;2023-04-24T04:34:23;3.10;;;1.90;;
7191;SDS011;3637;51.494;11.958;2023-04-24T04:37:25;1.70;;;1.60;;
7191;SDS011;3637;51.494;11.958;2023-04-24T04:40:30;2.30;;;1.57;;
7191;SDS011;3637;51.494;11.958;2023-04-24T04:43:31;1.60;;;1.50;;
7191;SDS011;3637;51.494;11.958;2023-04-24T04:46:34;1.93;;;1.73;;
7191;SDS011;3637;51.494;11.958;2023-04-24T04:49:37;2.00;;;1.80;;
7191;SDS011;3637;51.494;11.958;2023-04-24T04:52:39;1.90;;;1.70;;
7191;SDS011;3637;51.494;11.958;2023-04-24T04:55:42;2.53;;;1.80;;
7191;SDS011;3637;51.494;11.958;2023-04-24T04:58:44;2.20;;;1.80;;
7191;SDS011;3637;51.494;11.958;2023-04-24T05:01:46;3.17;;;2.00;;
7191;SDS011;3637;51.494;11.958;2023-04-24T05:04:48;2.37;;;1.60;;
7191;SDS011;3637;51.494;11.958;2023-04-24T05:07:50;1.77;;;1.67;;
7191;SDS011;3637;51.494;11.958;2023-04-24T05:10:53;2.17;;;1.80;;
7191;SDS011;3637;51.494;11.958;2023-04-24T05:13:55;1.80;;;1.60;;
7191;SDS011;3637;51.494;11.958;2023-04-24T05:16:59;2.23;;;1.80;;
7191;SDS011;3637;51.494;11.958;2023-04-24T05:20:01;2.13;;;1.93;;
7191;SDS011;3637;51.494;11.958;2023-04-24T05:23:05;2.40;;;1.90;;
7191;SDS011;3637;51.494;11.958;2023-04-24T05:26:08;2.03;;;1.73;;
7191;SDS011;3637;51.494;11.958;2023-04-24T05:29:10;2.77;;;1.80;;
7191;SDS011;3637;51.494;11.958;2023-04-24T05:32:12;3.13;;;1.97;;
7191;SDS011;3637;51.494;11.958;2023-04-24T05:35:14;2.20;;;1.90;;
7191;SDS011;3637;51.494;11.958;2023-04-24T05:38:16;1.80;;;1.70;;
7191;SDS011;3637;51.494;11.958;2023-04-24T05:41:21;4.20;;;1.70;;
7191;SDS011;3637;51.494;11.958;2023-04-24T05:44:22;2.20;;;1.97;;
7191;SDS011;3637;51.494;11.958;2023-04-24T05:47:24;2.57;;;2.10;;
7191;SDS011;3637;51.494;11.958;2023-04-24T05:50:26;3.00;;;1.90;;
7191;SDS011;3637;51.494;11.958;2023-04-24T05:53:28;2.10;;;1.80;;
7191;SDS011;3637;51.494;11.958;2023-04-24T05:56:31;6.10;;;1.73;;
7191;SDS011;3637;51.494;11.958;2023-04-24T05:59:33;2.27;;;1.90;;
7191;SDS011;3637;51.494;11.958;2023-04-24T06:02:36;7.57;;;1.90;;
7191;SDS011;3637;51.494;11.958;2023-04-24T06:05:38;3.83;;;1.50;;
7191;SDS011;3637;51.494;11.958;2023-04-24T06:08:40;2.40;;;1.70;;
7191;SDS011;3637;51.494;11.958;2023-04-24T06:11:44;2.27;;;1.67;;
7191;SDS011;3637;51.494;11.958;2023-04-24T06:14:46;5.30;;;3.30;;
7191;SDS011;3637;51.494;11.958;2023-04-24T06:17:47;1.80;;;1.70;;
7191;SDS011;3637;51.494;11.958;2023-04-24T06:20:49;2.37;;;1.60;;
7191;SDS011;3637;51.494;11.958;2023-04-24T06:23:51;1.63;;;1.53;;
7191;SDS011;3637;51.494;11.958;2023-04-24T06:26:55;1.93;;;1.63;;
7191;SDS011;3637;51.494;11.958;2023-04-24T06:29:57;1.70;;;1.60;;
7191;SDS011;3637;51.494;11.958;2023-04-24T06:32:59;2.63;;;1.93;;
7191;SDS011;3637;51.494;11.958;2023-04-24T06:36:01;1.87;;;1.77;;
7191;SDS011;3637;51.494;11.958;2023-04-24T06:39:04;3.83;;;1.70;;
7191;SDS011;3637;51.494;11.958;2023-04-24T06:42:07;2.23;;;1.50;;
7191;SDS011;3637;51.494;11.958;2023-04-24T06:45:09;2.10;;;1.53;;
7191;SDS011;3637;51.494;11.958;2023-04-24T06:48:11;1.70;;;1.60;;
7191;SDS011;3637;51.494;11.958;2023-04-24T06:51:13;2.07;;;1.87;;
7191;SDS011;3637;51.494;11.958;2023-04-24T06:54:15;2.27;;;1.97;;
7191;SDS011;3637;51.494;11.958;2023-04-24T06:57:18;2.67;;;1.80;;
7191;SDS011;3637;51.494;11.958;2023-04-24T07:00:21;2.40;;;1.60;;
7191;SDS011;3637;51.494;11.958;2023-04-24T07:03:24;3.67;;;2.20;;
7191;SDS011;3637;51.494;11.958;2023-04-24T07:06:26;4.13;;;1.83;;
7191;SDS011;3637;51.494;11.958;2023-04-24T07:09:30;5.40;;;1.60;;
7191;SDS011;3637;51.494;11.958;2023-04-24T07:12:34;2.63;;;1.60;;
7191;SDS011;3637;51.494;11.958;2023-04-24T07:15:36;2.73;;;1.70;;
7191;SDS011;3637;51.494;11.958;2023-04-24T07:18:38;1.90;;;1.70;;
7191;SDS011;3637;51.494;11.958;2023-04-24T07:21:40;1.70;;;1.53;;
7191;SDS011;3637;51.494;11.958;2023-04-24T07:24:42;1.60;;;1.50;;
7191;SDS011;3637;51.494;11.958;2023-04-24T07:27:45;2.10;;;1.50;;
7191;SDS011;3637;51.494;11.958;2023-04-24T07:30:48;1.83;;;1.50;;
7191;SDS011;3637;51.494;11.958;2023-04-24T07:33:50;2.50;;;1.83;;
7191;SDS011;3637;51.494;11.958;2023-04-24T07:36:51;2.17;;;1.50;;
7191;SDS011;3637;51.494;11.958;2023-04-24T07:39:53;1.50;;;1.40;;
7191;SDS011;3637;51.494;11.958;2023-04-24T07:42:59;2.33;;;1.50;;
7191;SDS011;3637;51.494;11.958;2023-04-24T07:46:01;2.47;;;1.60;;
7191;SDS011;3637;51.494;11.958;2023-04-24T07:49:03;1.73;;;1.50;;
7191;SDS011;3637;51.494;11.958;2023-04-24T07:52:05;1.60;;;1.50;;
7191;SDS011;3637;51.494;11.958;2023-04-24T07:55:07;3.20;;;1.50;;
7191;SDS011;3637;51.494;11.958;2023-04-24T07:58:11;1.87;;;1.50;;
7191;SDS011;3637;51.494;11.958;2023-04-24T08:01:12;1.63;;;1.50;;
7191;SDS011;3637;51.494;11.958;2023-04-24T08:04:14;1.40;;;1.30;;
7191;SDS011;3637;51.494;11.958;2023-04-24T08:07:17;2.37;;;1.60;;
7191;SDS011;3637;51.494;11.958;2023-04-24T08:10:20;5.20;;;1.40;;
7191;SDS011;3637;51.494;11.958;2023-04-24T08:13:23;1.80;;;1.27;;
7191;SDS011;3637;51.494;11.958;2023-04-24T08:16:25;3.37;;;1.60;;
7191;SDS011;3637;51.494;11.958;2023-04-24T08:19:29;1.87;;;1.47;;
7191;SDS011;3637;51.494;11.958;2023-04-24T08:22:31;1.70;;;1.43;;
7191;SDS011;3637;51.494;11.958;2023-04-24T08:25:33;3.03;;;1.70;;
7191;SDS011;3637;51.494;11.958;2023-04-24T08:28:36;2.87;;;1.60;;
7191;SDS011;3637;51.494;11.958;2023-04-24T08:31:38;1.50;;;1.40;;
7191;SDS011;3637;51.494;11.958;2023-04-24T08:34:40;1.50;;;1.40;;
7191;SDS011;3637;51.494;11.958;2023-04-24T08:37:42;2.60;;;1.77;;
7191;SDS011;3637;51.494;11.958;2023-04-24T08:40:44;2.87;;;1.73;;
7191;SDS011;3637;51.494;11.958;2023-04-24T08:43:49;4.60;;;1.60;;
7191;SDS011;3637;51.494;11.958;2023-04-24T08:46:52;1.57;;;1.47;;
7191;SDS011;3637;51.494;11.958;2023-04-24T08:49:55;2.23;;;1.60;;
7191;SDS011;3637;51.494;11.958;2023-04-24T08:53:02;1.60;;;1.50;;
7191;SDS011;3637;51.494;11.958;2023-04-24T08:56:05;1.47;;;1.37;;
7191;SDS011;3637;51.494;11.958;2023-04-24T08:59:08;2.03;;;1.53;;
7191;SDS011;3637;51.494;11.958;2023-04-24T09:02:11;2.23;;;1.60;;
7191;SDS011;3637;51.494;11.958;2023-04-24T09:05:17;1.60;;;1.50;;
7191;SDS011;3637;51.494;11.958;2023-04-24T09:08:22;1.63;;;1.50;;
7191;SDS011;3637;51.494;11.958;2023-04-24T09:11:27;1.83;;;1.63;;
7191;SDS011;3637;51.494;11.958;2023-04-24T09:14:31;1.63;;;1.50;;
7191;SDS011;3637;51.494;11.958;2023-04-24T09:17:36;1.70;;;1.60;;
7191;SDS011;3637;51.494;11.958;2023-04-24T09:24:06;5.10;;;1.70;;
7191;SDS011;3637;51.494;11.958;2023-04-24T09:27:10;1.50;;;1.37;;
7191;SDS011;3637;51.494;11.958;2023-04-24T09:30:14;3.53;;;1.73;;
7191;SDS011;3637;51.494;11.958;2023-04-24T09:33:22;6.60;;;1.60;;
7191;SDS011;3637;51.494;11.958;2023-04-24T09:36:26;1.37;;;1.27;;
7191;SDS011;3637;51.494;11.958;2023-04-24T09:39:29;2.30;;;1.67;;
7191;SDS011;3637;51.494;11.958;2023-04-24T09:42:31;7.50;;;1.83;;
7191;SDS011;3637;51.494;11.958;2023-04-24T09:45:36;9.37;;;2.90;;
7191;SDS011;3637;51.494;11.958;2023-04-24T09:48:39;1.60;;;1.50;;
7191;SDS011;3637;51.494;11.958;2023-04-24T09:51:40;3.80;;;1.63;;
7191;SDS011;3637;51.494;11.958;2023-04-24T09:54:42;1.60;;;1.50;;
7191;SDS011;3637;51.494;11.958;2023-04-24T09:57:54;3.00;;;1.80;;
7191;SDS011;3637;51.494;11.958;2023-04-24T10:00:59;2.30;;;1.70;;
7191;SDS011;3637;51.494;11.958;2023-04-24T10:04:02;1.60;;;1.50;;
7191;SDS011;3637;51.494;11.958;2023-04-24T10:07:04;1.70;;;1.60;;
7191;SDS011;3637;51.494;11.958;2023-04-24T10:10:07;1.77;;;1.67;;
7191;SDS011;3637;51.494;11.958;2023-04-24T10:13:11;3.60;;;1.97;;
7191;SDS011;3637;51.494;11.958;2023-04-24T10:16:16;1.67;;;1.57;;
7191;SDS011;3637;51.494;11.958;2023-04-24T10:19:18;1.97;;;1.60;;
7191;SDS011;3637;51.494;11.958;2023-04-24T10:22:20;2.03;;;1.63;;
7191;SDS011;3637;51.494;11.958;2023-04-24T10:25:24;2.00;;;1.73;;
7191;SDS011;3637;51.494;11.958;2023-04-24T10:28:27;1.87;;;1.73;;
7191;SDS011;3637;51.494;11.958;2023-04-24T10:31:33;2.07;;;1.60;;
7191;SDS011;3637;51.494;11.958;2023-04-24T10:34:35;1.60;;;1.50;;
7191;SDS011;3637;51.494;11.958;2023-04-24T10:37:37;1.90;;;1.70;;
7191;SDS011;3637;51.494;11.958;2023-04-24T10:40:42;1.80;;;1.70;;
7191;SDS011;3637;51.494;11.958;2023-04-24T10:43:44;2.60;;;1.90;;
7191;SDS011;3637;51.494;11.958;2023-04-24T10:46:47;2.97;;;1.63;;
7191;SDS011;3637;51.494;11.958;2023-04-24T10:49:54;2.10;;;1.60;;
7191;SDS011;3637;51.494;11.958;2023-04-24T10:53:07;2.00;;;1.80;;
7191;SDS011;3637;51.494;11.958;2023-04-24T10:56:15;2.10;;;1.80;;
7191;SDS011;3637;51.494;11.958;2023-04-24T10:59:23;1.70;;;1.60;;
7191;SDS011;3637;51.494;11.958;2023-04-24T11:02:36;1.80;;;1.70;;
7191;SDS011;3637;51.494;11.958;2023-04-24T11:09:03;4.37;;;1.80;;
7191;SDS011;3637;51.494;11.958;2023-04-24T11:12:07;2.50;;;1.50;;
7191;SDS011;3637;51.494;11.958;2023-04-24T11:15:10;1.60;;;1.50;;
7191;SDS011;3637;51.494;11.958;2023-04-24T11:18:17;3.40;;;1.60;;
7191;SDS011;3637;51.494;11.958;2023-04-24T11:21:19;1.97;;;1.70;;
7191;SDS011;3637;51.494;11.958;2023-04-24T11:24:24;1.90;;;1.70;;
7191;SDS011;3637;51.494;11.958;2023-04-24T11:27:31;1.93;;;1.73;;
7191;SDS011;3637;51.494;11.958;2023-04-24T11:30:39;1.60;;;1.50;;
7191;SDS011;3637;51.494;11.958;2023-04-24T11:33:42;1.70;;;1.60;;
7191;SDS011;3637;51.494;11.958;2023-04-24T11:36:44;1.60;;;1.50;;
7191;SDS011;3637;51.494;11.958;2023-04-24T11:39:49;1.70;;;1.60;;
7191;SDS011;3637;51.494;11.958;2023-04-24T11:42:53;4.40;;;1.80;;
7191;SDS011;3637;51.494;11.958;2023-04-24T11:45:56;2.33;;;1.73;;
7191;SDS011;3637;51.494;11.958;2023-04-24T11:49:02;1.50;;;1.40;;
7191;SDS011;3637;51.494;11.958;2023-04-24T11:52:05;1.90;;;1.80;;
7191;SDS011;3637;51.494;11.958;2023-04-24T11:55:07;2.10;;;1.80;;
7191;SDS011;3637;51.494;11.958;2023-04-24T11:58:25;2.77;;;1.97;;
7191;SDS011;3637;51.494;11.958;2023-04-24T12:01:27;1.87;;;1.60;;
7191;SDS011;3637;51.494;11.958;2023-04-24T12:04:37;2.10;;;2.00;;
7191;SDS011;3637;51.494;11.958;2023-04-24T12:07:41;4.20;;;2.37;;
7191;SDS011;3637;51.494;11.958;2023-04-24T12:10:43;2.57;;;2.10;;
7191;SDS011;3637;51.494;11.958;2023-04-24T12:13:45;2.30;;;2.10;;
7191;SDS011;3637;51.494;11.958;2023-04-24T12:16:47;2.40;;;2.07;;
7191;SDS011;3637;51.494;11.958;2023-04-24T12:19:51;3.10;;;1.90;;
7191;SDS011;3637;51.494;11.958;2023-04-24T12:22:59;1.97;;;1.83;;
7191;SDS011;3637;51.494;11.958;2023-04-24T12:26:03;2.00;;;1.90;;
7191;SDS011;3637;51.494;11.958;2023-04-24T12:29:05;2.40;;;2.10;;
7191;SDS011;3637;51.494;11.958;2023-04-24T12:32:15;3.13;;;1.80;;
7191;SDS011;3637;51.494;11.958;2023-04-24T12:35:20;2.10;;;1.90;;
7191;SDS011;3637;51.494;11.958;2023-04-24T12:38:23;2.10;;;1.80;;
7191;SDS011;3637;51.494;11.958;2023-04-24T12:41:27;2.57;;;2.17;;
7191;SDS011;3637;51.494;11.958;2023-04-24T12:44:32;3.60;;;2.13;;
7191;SDS011;3637;51.494;11.958;2023-04-24T12:47:35;2.13;;;1.97;;
7191;SDS011;3637;51.494;11.958;2023-04-24T12:50:39;3.30;;;2.00;;
7191;SDS011;3637;51.494;11.958;2023-04-24T12:53:40;3.33;;;2.60;;
7191;SDS011;3637;51.494;11.958;2023-04-24T12:56:45;2.30;;;1.90;;
7191;SDS011;3637;51.494;11.958;2023-04-24T12:59:46;2.50;;;2.07;;
7191;SDS011;3637;51.494;11.958;2023-04-24T13:02:51;6.47;;;3.47;;
7191;SDS011;3637;51.494;11.958;2023-04-24T13:05:54;2.57;;;1.80;;
7191;SDS011;3637;51.494;11.958;2023-04-24T13:08:56;1.97;;;1.67;;
7191;SDS011;3637;51.494;11.958;2023-04-24T13:12:01;2.70;;;1.90;;
7191;SDS011;3637;51.494;11.958;2023-04-24T13:15:05;2.10;;;1.80;;
7191;SDS011;3637;51.494;11.958;2023-04-24T13:18:08;2.43;;;2.23;;
7191;SDS011;3637;51.494;11.958;2023-04-24T13:21:11;2.10;;;1.83;;
7191;SDS011;3637;51.494;11.958;2023-04-24T13:24:13;2.53;;;2.10;;
7191;SDS011;3637;51.494;11.958;2023-04-24T13:27:16;2.23;;;1.93;;
7191;SDS011;3637;51.494;11.958;2023-04-24T13:30:18;2.67;;;1.70;;
7191;SDS011;3637;51.494;11.958;2023-04-24T13:33:20;3.00;;;1.80;;
7191;SDS011;3637;51.494;11.958;2023-04-24T13:36:23;3.47;;;1.83;;
7191;SDS011;3637;51.494;11.958;2023-04-24T13:39:25;2.00;;;1.80;;
7191;SDS011;3637;51.494;11.958;2023-04-24T13:42:27;1.80;;;1.70;;
7191;SDS011;3637;51.494;11.958;2023-04-24T13:45:29;2.17;;;1.70;;
7191;SDS011;3637;51.494;11.958;2023-04-24T13:48:31;1.80;;;1.70;;
7191;SDS011;3637;51.494;11.958;2023-04-24T13:51:37;1.93;;;1.83;;
7191;SDS011;3637;51.494;11.958;2023-04-24T13:54:40;1.70;;;1.60;;
7191;SDS011;3637;51.494;11.958;2023-04-24T13:57:41;3.80;;;1.60;;
7191;SDS011;3637;51.494;11.958;2023-04-24T14:00:43;3.63;;;1.80;;
7191;SDS011;3637;51.494;11.958;2023-04-24T14:03:45;3.10;;;1.80;;
7191;SDS011;3637;51.494;11.958;2023-04-24T14:06:49;2.17;;;1.97;;
7191;SDS011;3637;51.494;11.958;2023-04-24T14:09:51;1.90;;;1.70;;
7191;SDS011;3637;51.494;11.958;2023-04-24T14:12:52;1.93;;;1.73;;
7191;SDS011;3637;51.494;11.958;2023-04-24T14:15:54;1.80;;;1.70;;
7191;SDS011;3637;51.494;11.958;2023-04-24T14:18:56;1.53;;;1.43;;
7191;SDS011;3637;51.494;11.958;2023-04-24T14:22:03;1.30;;;1.20;;
7191;SDS011;3637;51.494;11.958;2023-04-24T14:25:06;1.30;;;1.20;;
7191;SDS011;3637;51.494;11.958;2023-04-24T14:28:13;1.00;;;1.00;;
7191;SDS011;3637;51.494;11.958;2023-04-24T14:31:15;1.10;;;1.10;;
7191;SDS011;3637;51.494;11.958;2023-04-24T14:34:16;3.03;;;1.40;;
7191;SDS011;3637;51.494;11.958;2023-04-24T14:37:21;1.43;;;1.33;;
7191;SDS011;3637;51.494;11.958;2023-04-24T14:40:22;1.67;;;1.00;;
7191;SDS011;3637;51.494;11.958;2023-04-24T14:43:24;1.10;;;1.10;;
7191;SDS011;3637;51.494;11.958;2023-04-24T14:46:26;1.30;;;0.93;;
7191;SDS011;3637;51.494;11.958;2023-04-24T14:49:28;1.40;;;1.30;;
7191;SDS011;3637;51.494;11.958;2023-04-24T14:52:31;2.45;;;1.30;;
7191;SDS011;3637;51.494;11.958;2023-04-24T14:55:33;5.47;;;1.20;;
7191;SDS011;3637;51.494;11.958;2023-04-24T14:58:36;1.17;;;1.17;;
7191;SDS011;3637;51.494;11.958;2023-04-24T15:01:38;1.00;;;1.00;;
7191;SDS011;3637;51.494;11.958;2023-04-24T15:04:39;1.37;;;0.83;;
7191;SDS011;3637;51.494;11.958;2023-04-24T15:07:43;1.23;;;1.20;;
7191;SDS011;3637;51.494;11.958;2023-04-24T15:10:46;1.50;;;1.27;;
7191;SDS011;3637;51.494;11.958;2023-04-24T15:13:48;2.70;;;0.90;;
7191;SDS011;3637;51.494;11.958;2023-04-24T15:16:50;0.93;;;0.90;;
7191;SDS011;3637;51.494;11.958;2023-04-24T15:19:52;0.83;;;0.83;;
7191;SDS011;3637;51.494;11.958;2023-04-24T15:22:56;0.90;;;0.90;;
7191;SDS011;3637;51.494;11.958;2023-04-24T15:25:59;0.90;;;0.90;;
7191;SDS011;3637;51.494;11.958;2023-04-24T15:29:01;0.97;;;0.97;;
7191;SDS011;3637;51.494;11.958;2023-04-24T15:32:03;1.13;;;1.00;;
7191;SDS011;3637;51.494;11.958;2023-04-24T15:35:06;3.57;;;1.00;;
7191;SDS011;3637;51.494;11.958;2023-04-24T15:38:09;1.07;;;0.93;;
7191;SDS011;3637;51.494;11.958;2023-04-24T15:41:11;1.27;;;1.10;;
7191;SDS011;3637;51.494;11.958;2023-04-24T15:44:13;1.73;;;0.90;;
7191;SDS011;3637;51.494;11.958;2023-04-24T15:47:15;1.47;;;0.80;;
7191;SDS011;3637;51.494;11.958;2023-04-24T15:50:17;0.90;;;0.90;;
7191;SDS011;3637;51.494;11.958;2023-04-24T15:53:22;0.90;;;0.90;;
7191;SDS011;3637;51.494;11.958;2023-04-24T15:56:24;1.40;;;1.00;;
7191;SDS011;3637;51.494;11.958;2023-04-24T15:59:26;1.00;;;1.00;;
7191;SDS011;3637;51.494;11.958;2023-04-24T16:02:29;1.00;;;1.00;;
7191;SDS011;3637;51.494;11.958;2023-04-24T16:05:32;0.90;;;0.90;;
7191;SDS011;3637;51.494;11.958;2023-04-24T16:08:35;0.90;;;0.90;;
7191;SDS011;3637;51.494;11.958;2023-04-24T16:11:37;1.00;;;1.00;;
7191;SDS011;3637;51.494;11.958;2023-04-24T16:14:41;3.10;;;1.10;;
7191;SDS011;3637;51.494;11.958;2023-04-24T16:17:43;1.03;;;1.03;;
7191;SDS011;3637;51.494;11.958;2023-04-24T16:20:45;1.20;;;1.10;;
7191;SDS011;3637;51.494;11.958;2023-04-24T16:23:48;1.00;;;1.00;;
7191;SDS011;3637;51.494;11.958;2023-04-24T16:26:50;0.90;;;0.90;;
7191;SDS011;3637;51.494;11.958;2023-04-24T16:29:52;1.20;;;1.10;;
7191;SDS011;3637;51.494;11.958;2023-04-24T16:32:54;1.37;;;1.00;;
7191;SDS011;3637;51.494;11.958;2023-04-24T16:35:56;1.10;;;1.10;;
7191;SDS011;3637;51.494;11.958;2023-04-24T16:38:59;1.00;;;1.00;;
7191;SDS011;3637;51.494;11.958;2023-04-24T16:42:03;1.10;;;1.10;;
7191;SDS011;3637;51.494;11.958;2023-04-24T16:45:06;1.33;;;1.30;;
7191;SDS011;3637;51.494;11.958;2023-04-24T16:48:09;0.90;;;0.90;;
7191;SDS011;3637;51.494;11.958;2023-04-24T16:51:11;1.10;;;1.10;;
7191;SDS011;3637;51.494;11.958;2023-04-24T16:54:16;1.00;;;1.00;;
7191;SDS011;3637;51.494;11.958;2023-04-24T16:57:18;1.63;;;1.10;;
7191;SDS011;3637;51.494;11.958;2023-04-24T17:00:20;1.40;;;1.30;;
7191;SDS011;3637;51.494;11.958;2023-04-24T17:03:24;1.23;;;1.17;;
7191;SDS011;3637;51.494;11.958;2023-04-24T17:06:26;1.30;;;1.20;;
7191;SDS011;3637;51.494;11.958;2023-04-24T17:09:29;1.77;;;1.23;;
7191;SDS011;3637;51.494;11.958;2023-04-24T17:12:31;1.87;;;1.50;;
7191;SDS011;3637;51.494;11.958;2023-04-24T17:15:33;1.53;;;1.40;;
7191;SDS011;3637;51.494;11.958;2023-04-24T17:18:35;2.53;;;2.40;;
7191;SDS011;3637;51.494;11.958;2023-04-24T17:21:37;1.70;;;1.60;;
7191;SDS011;3637;51.494;11.958;2023-04-24T17:24:40;3.83;;;1.60;;
7191;SDS011;3637;51.494;11.958;2023-04-24T17:27:43;1.60;;;1.50;;
7191;SDS011;3637;51.494;11.958;2023-04-24T17:30:44;3.03;;;1.60;;
7191;SDS011;3637;51.494;11.958;2023-04-24T17:33:47;2.23;;;1.80;;
7191;SDS011;3637;51.494;11.958;2023-04-24T17:36:49;1.83;;;1.70;;
7191;SDS011;3637;51.494;11.958;2023-04-24T17:39:52;2.27;;;1.90;;
7191;SDS011;3637;51.494;11.958;2023-04-24T17:42:54;2.10;;;1.90;;
7191;SDS011;3637;51.494;11.958;2023-04-24T17:45:56;3.23;;;2.17;;
7191;SDS011;3637;51.494;11.958;2023-04-24T17:49:00;2.27;;;2.07;;
7191;SDS011;3637;51.494;11.958;2023-04-24T17:52:16;2.27;;;2.07;;
7191;SDS011;3637;51.494;11.958;2023-04-24T17:55:25;2.53;;;2.33;;
7191;SDS011;3637;51.494;11.958;2023-04-24T17:58:27;5.37;;;2.60;;
7191;SDS011;3637;51.494;11.958;2023-04-24T18:01:30;4.77;;;2.30;;
7191;SDS011;3637;51.494;11.958;2023-04-24T18:04:31;3.20;;;2.33;;
7191;SDS011;3637;51.494;11.958;2023-04-24T18:07:33;2.53;;;2.13;;
7191;SDS011;3637;51.494;11.958;2023-04-24T18:10:36;2.97;;;2.63;;
7191;SDS011;3637;51.494;11.958;2023-04-24T18:13:38;2.67;;;2.37;;
7191;SDS011;3637;51.494;11.958;2023-04-24T18:16:41;2.80;;;2.60;;
7191;SDS011;3637;51.494;11.958;2023-04-24T18:19:42;5.40;;;2.67;;
7191;SDS011;3637;51.494;11.958;2023-04-24T18:22:48;3.37;;;3.07;;
7191;SDS011;3637;51.494;11.958;2023-04-24T18:25:51;3.67;;;2.87;;
7191;SDS011;3637;51.494;11.958;2023-04-24T18:28:53;3.53;;;2.63;;
7191;SDS011;3637;51.494;11.958;2023-04-24T18:31:58;3.47;;;2.97;;
7191;SDS011;3637;51.494;11.958;2023-04-24T18:35:00;3.47;;;3.03;;
7191;SDS011;3637;51.494;11.958;2023-04-24T18:38:02;3.37;;;2.93;;
7191;SDS011;3637;51.494;11.958;2023-04-24T18:41:06;4.60;;;2.77;;
7191;SDS011;3637;51.494;11.958;2023-04-24T18:44:08;3.93;;;2.73;;